Time;durP1;ratioP1;P1;durP2;ratioP2;P2;SDS_P1;SDS_P2;PMS_P1;PMS_P2;Temp;Humidity;BMP_temperature;BMP_pressure;BME280_temperature;BME280_humidity;BME280_pressure;Samples;Min_cycle;Max_cycle;Signal;HPM_P1;HPM_P2
2021/05/09 00:00:49;;;;;;;2.92;2.47;;;;;;;;;;5010307;28;20212;-62
2021/05/09 00:03:15;;;;;;;2.73;2.53;;;;;;;;;;5004405;28;20275;-62
2021/05/09 00:05:41;;;;;;;3.00;2.80;;;;;;;;;;4997765;28;20794;-63
2021/05/09 00:08:07;;;;;;;2.67;2.47;;;;;;;;;;5000569;28;20187;-62
2021/05/09 00:10:33;;;;;;;2.67;2.25;;;;;;;;;;5006409;28;20624;-61
2021/05/09 00:12:59;;;;;;;3.33;2.20;;;;;;;;;;5028355;28;20213;-61
2021/05/09 00:15:26;;;;;;;3.87;1.83;;;;;;;;;;5004917;28;20695;-61
2021/05/09 00:17:52;;;;;;;2.40;2.20;;;;;;;;;;5009953;28;20206;-61
2021/05/09 00:20:20;;;;;;;2.63;2.37;;;;;;;;;;5003682;28;20192;-62
2021/05/09 00:22:46;;;;;;;2.43;2.20;;;;;;;;;;5006865;28;20212;-61
2021/05/09 00:25:12;;;;;;;4.40;2.23;;;;;;;;;;4999631;28;20692;-62
2021/05/09 00:27:39;;;;;;;2.28;2.08;;;;;;;;;;5006234;28;20201;-62
2021/05/09 00:30:06;;;;;;;2.72;2.53;;;;;;;;;;5005021;28;20558;-61
2021/05/09 00:32:32;;;;;;;3.90;2.50;;;;;;;;;;5005121;28;20206;-61
2021/05/09 00:34:58;;;;;;;2.95;2.35;;;;;;;;;;4999304;28;20193;-62
2021/05/09 00:37:24;;;;;;;3.63;2.60;;;;;;;;;;5001861;28;20550;-62
2021/05/09 00:39:50;;;;;;;3.87;2.50;;;;;;;;;;4995437;28;20913;-63
2021/05/09 00:42:17;;;;;;;2.30;2.10;;;;;;;;;;5008356;28;20629;-63
2021/05/09 00:44:43;;;;;;;2.90;2.67;;;;;;;;;;5004555;28;20585;-62
2021/05/09 00:47:13;;;;;;;2.42;2.22;;;;;;;;;;5006418;28;20194;-61
2021/05/09 00:49:39;;;;;;;2.70;2.33;;;;;;;;;;5001936;28;20184;-62
2021/05/09 00:52:06;;;;;;;2.40;2.17;;;;;;;;;;5001485;28;20237;-61
2021/05/09 00:54:33;;;;;;;2.47;2.28;;;;;;;;;;5006467;28;20190;-61
2021/05/09 00:56:59;;;;;;;8.27;3.37;;;;;;;;;;5005418;28;20204;-62
2021/05/09 00:59:33;;;;;;;3.20;2.90;;;;;;;;;;5009006;28;20181;-62
2021/05/09 01:01:59;;;;;;;3.27;3.00;;;;;;;;;;4997742;28;20208;-61
2021/05/09 01:04:25;;;;;;;2.97;2.77;;;;;;;;;;5008524;28;20188;-62
2021/05/09 01:06:51;;;;;;;2.70;2.50;;;;;;;;;;5005309;28;20268;-61
2021/05/09 01:09:17;;;;;;;3.17;2.90;;;;;;;;;;5006622;28;20280;-62
2021/05/09 01:11:43;;;;;;;3.37;2.90;;;;;;;;;;5002808;28;20696;-63
2021/05/09 01:14:10;;;;;;;4.57;2.97;;;;;;;;;;5009364;28;20181;-61
2021/05/09 01:16:36;;;;;;;3.00;2.80;;;;;;;;;;4998543;28;20189;-63
2021/05/09 01:19:02;;;;;;;3.80;3.27;;;;;;;;;;5005350;28;20203;-62
2021/05/09 01:21:28;;;;;;;3.40;3.10;;;;;;;;;;5007001;28;20231;-62
2021/05/09 01:23:54;;;;;;;2.80;2.60;;;;;;;;;;5011199;28;21062;-63
2021/05/09 01:26:20;;;;;;;4.20;2.83;;;;;;;;;;5001742;28;20296;-63
2021/05/09 01:28:46;;;;;;;3.03;2.83;;;;;;;;;;5009906;28;20257;-61
2021/05/09 01:31:12;;;;;;;2.73;2.53;;;;;;;;;;5003406;28;20205;-61
2021/05/09 01:33:38;;;;;;;3.37;2.80;;;;;;;;;;5004803;28;20198;-63
2021/05/09 01:36:04;;;;;;;3.57;3.20;;;;;;;;;;5002178;28;20323;-61
2021/05/09 01:38:30;;;;;;;2.60;2.40;;;;;;;;;;5006024;28;20198;-61
2021/05/09 01:40:56;;;;;;;4.10;3.00;;;;;;;;;;5008459;28;20201;-63
2021/05/09 01:43:22;;;;;;;4.90;3.37;;;;;;;;;;5004245;28;20547;-62
2021/05/09 01:45:48;;;;;;;3.30;3.00;;;;;;;;;;5003280;28;20687;-62
2021/05/09 01:48:14;;;;;;;3.23;2.97;;;;;;;;;;4998591;28;20229;-61
2021/05/09 01:50:40;;;;;;;3.60;3.30;;;;;;;;;;5003880;28;20291;-63
2021/05/09 01:53:06;;;;;;;3.80;3.00;;;;;;;;;;5007454;28;20203;-62
2021/05/09 01:55:32;;;;;;;3.37;3.07;;;;;;;;;;5008616;28;20627;-63
2021/05/09 01:57:58;;;;;;;3.43;3.13;;;;;;;;;;5005082;28;20207;-61
2021/05/09 02:00:25;;;;;;;5.17;2.97;;;;;;;;;;5006137;28;20189;-61
2021/05/09 02:02:51;;;;;;;3.40;2.80;;;;;;;;;;4995979;28;20225;-61
2021/05/09 02:05:18;;;;;;;4.63;3.23;;;;;;;;;;5007090;28;20207;-62
2021/05/09 02:07:44;;;;;;;4.13;3.47;;;;;;;;;;5009400;28;20670;-62
2021/05/09 02:10:11;;;;;;;3.50;3.20;;;;;;;;;;5001835;28;20189;-62
2021/05/09 02:12:37;;;;;;;2.63;2.43;;;;;;;;;;5003158;28;20211;-62
2021/05/09 02:15:04;;;;;;;3.17;2.87;;;;;;;;;;5004266;28;20197;-62
2021/05/09 02:17:30;;;;;;;4.83;3.40;;;;;;;;;;5000038;28;20680;-64
2021/05/09 02:19:56;;;;;;;3.50;3.00;;;;;;;;;;4998380;28;20192;-62
2021/05/09 02:22:22;;;;;;;3.83;2.60;;;;;;;;;;5006491;28;20683;-63
2021/05/09 02:24:48;;;;;;;3.83;2.53;;;;;;;;;;4998861;28;20221;-62
2021/05/09 02:27:14;;;;;;;2.90;2.47;;;;;;;;;;4998951;28;20227;-62
2021/05/09 02:29:40;;;;;;;3.38;3.10;;;;;;;;;;5005204;28;20187;-62
2021/05/09 02:32:06;;;;;;;3.55;3.25;;;;;;;;;;5003278;28;20213;-62
2021/05/09 02:34:33;;;;;;;4.45;3.00;;;;;;;;;;5003442;28;20185;-61
2021/05/09 02:36:59;;;;;;;4.57;3.30;;;;;;;;;;4998979;28;20189;-61
2021/05/09 02:39:25;;;;;;;3.40;3.10;;;;;;;;;;5001351;28;20188;-62
2021/05/09 02:41:51;;;;;;;4.63;3.23;;;;;;;;;;5003083;28;20205;-62
2021/05/09 02:44:17;;;;;;;3.67;3.20;;;;;;;;;;5003984;28;20661;-63
2021/05/09 02:46:43;;;;;;;3.97;3.67;;;;;;;;;;5004101;28;20215;-63
2021/05/09 02:49:09;;;;;;;4.17;3.33;;;;;;;;;;4997308;28;20189;-63
2021/05/09 02:51:35;;;;;;;4.20;3.43;;;;;;;;;;4999212;28;20233;-63
2021/05/09 02:54:02;;;;;;;4.27;3.83;;;;;;;;;;5005204;28;20383;-62
2021/05/09 02:56:28;;;;;;;4.97;3.80;;;;;;;;;;5000395;28;20185;-62
2021/05/09 02:58:54;;;;;;;3.90;3.60;;;;;;;;;;5009452;28;20215;-62
2021/05/09 03:01:20;;;;;;;4.10;3.70;;;;;;;;;;5003390;28;20382;-61
2021/05/09 03:03:46;;;;;;;3.90;3.50;;;;;;;;;;5004839;28;20500;-62
2021/05/09 03:06:12;;;;;;;3.83;3.43;;;;;;;;;;4998042;28;20739;-61
2021/05/09 03:08:38;;;;;;;4.53;3.60;;;;;;;;;;5001254;28;20267;-61
2021/05/09 03:11:04;;;;;;;4.03;3.50;;;;;;;;;;5000287;28;20200;-61
2021/05/09 03:13:30;;;;;;;4.67;3.40;;;;;;;;;;5001996;28;20213;-61
2021/05/09 03:15:57;;;;;;;3.57;3.27;;;;;;;;;;5003894;28;20234;-63
2021/05/09 03:18:23;;;;;;;4.83;3.67;;;;;;;;;;5010362;28;20195;-61
2021/05/09 03:20:49;;;;;;;4.47;4.07;;;;;;;;;;4999417;28;20184;-61
2021/05/09 03:23:15;;;;;;;4.50;4.10;;;;;;;;;;4999958;28;20204;-63
2021/05/09 03:25:41;;;;;;;4.03;3.63;;;;;;;;;;5005820;28;20208;-61
2021/05/09 03:28:07;;;;;;;4.43;3.90;;;;;;;;;;5002573;28;20664;-61
2021/05/09 03:30:33;;;;;;;4.30;3.90;;;;;;;;;;5005005;28;20188;-61
2021/05/09 03:32:59;;;;;;;4.20;3.90;;;;;;;;;;5002400;28;20181;-61
2021/05/09 03:35:25;;;;;;;4.33;4.00;;;;;;;;;;5002754;28;20192;-61
2021/05/09 03:37:51;;;;;;;4.70;4.30;;;;;;;;;;4998655;28;20224;-62
2021/05/09 03:40:18;;;;;;;4.40;4.00;;;;;;;;;;5002319;28;20185;-62
2021/05/09 03:42:44;;;;;;;5.13;4.10;;;;;;;;;;4993925;28;20247;-60
2021/05/09 03:45:10;;;;;;;4.50;4.10;;;;;;;;;;4999539;28;20245;-62
2021/05/09 03:47:38;;;;;;;4.90;4.43;;;;;;;;;;4996858;28;20186;-60
2021/05/09 03:50:04;;;;;;;4.37;3.93;;;;;;;;;;5001160;28;20180;-61
2021/05/09 03:52:30;;;;;;;4.50;4.20;;;;;;;;;;5000703;28;20212;-62
2021/05/09 03:54:57;;;;;;;4.37;3.97;;;;;;;;;;5005945;28;20604;-61
2021/05/09 03:57:23;;;;;;;4.30;3.90;;;;;;;;;;4998551;28;20546;-61
2021/05/09 03:59:49;;;;;;;4.57;4.17;;;;;;;;;;5004017;28;20193;-61
2021/05/09 04:02:15;;;;;;;6.23;4.20;;;;;;;;;;5004060;28;20232;-62
2021/05/09 04:04:41;;;;;;;4.63;4.23;;;;;;;;;;5005416;28;20573;-62
2021/05/09 04:07:07;;;;;;;4.60;4.20;;;;;;;;;;5001697;28;20288;-61
2021/05/09 04:09:33;;;;;;;5.20;4.70;;;;;;;;;;5011303;28;20693;-62
2021/05/09 04:11:59;;;;;;;5.20;4.13;;;;;;;;;;5008690;28;20202;-61
2021/05/09 04:14:25;;;;;;;4.90;4.50;;;;;;;;;;5000213;28;20191;-60
2021/05/09 04:16:52;;;;;;;4.33;3.93;;;;;;;;;;5000543;28;20220;-61
2021/05/09 04:19:18;;;;;;;5.17;4.77;;;;;;;;;;5002339;28;20189;-61
2021/05/09 04:21:44;;;;;;;4.67;4.20;;;;;;;;;;5003433;28;20219;-63
2021/05/09 04:24:10;;;;;;;4.43;4.03;;;;;;;;;;5003961;28;20193;-62
2021/05/09 04:26:36;;;;;;;3.90;3.50;;;;;;;;;;5007739;28;20217;-62
2021/05/09 04:29:02;;;;;;;3.80;3.43;;;;;;;;;;5000649;28;20198;-63
2021/05/09 04:31:28;;;;;;;4.17;3.73;;;;;;;;;;5005847;28;20899;-62
2021/05/09 04:33:54;;;;;;;3.93;3.27;;;;;;;;;;5003398;28;20193;-62
2021/05/09 04:36:20;;;;;;;3.87;3.47;;;;;;;;;;5005000;28;20223;-62
2021/05/09 04:38:46;;;;;;;5.07;4.00;;;;;;;;;;4998620;28;20288;-62
2021/05/09 04:41:12;;;;;;;5.27;4.00;;;;;;;;;;5003680;28;20203;-63
2021/05/09 04:43:39;;;;;;;3.87;3.57;;;;;;;;;;5003228;28;20254;-62
2021/05/09 04:46:05;;;;;;;7.10;4.13;;;;;;;;;;5001955;28;20718;-62
2021/05/09 04:48:32;;;;;;;6.07;4.07;;;;;;;;;;5007419;28;20185;-64
2021/05/09 04:50:58;;;;;;;4.73;4.00;;;;;;;;;;5008078;28;20206;-63
2021/05/09 04:53:25;;;;;;;4.18;3.78;;;;;;;;;;5004469;28;20184;-63
2021/05/09 04:55:52;;;;;;;6.67;3.40;;;;;;;;;;4999149;28;20208;-63
2021/05/09 04:58:18;;;;;;;4.60;3.93;;;;;;;;;;4996053;28;20189;-64
2021/05/09 05:00:44;;;;;;;4.03;3.73;;;;;;;;;;5001883;28;20283;-61
2021/05/09 05:03:10;;;;;;;3.90;3.40;;;;;;;;;;5005603;28;20731;-63
2021/05/09 05:05:36;;;;;;;3.53;3.33;;;;;;;;;;5003034;28;20333;-63
2021/05/09 05:08:02;;;;;;;4.05;3.65;;;;;;;;;;5006368;28;20264;-62
2021/05/09 05:10:28;;;;;;;5.38;4.40;;;;;;;;;;5002771;28;20192;-63
2021/05/09 05:12:54;;;;;;;4.43;4.03;;;;;;;;;;5008290;28;20643;-63
2021/05/09 05:15:20;;;;;;;4.07;3.65;;;;;;;;;;5005929;28;20186;-62
2021/05/09 05:17:46;;;;;;;4.05;3.65;;;;;;;;;;5005910;28;20224;-62
2021/05/09 05:20:13;;;;;;;4.32;3.65;;;;;;;;;;5003077;28;20198;-62
2021/05/09 05:22:39;;;;;;;4.10;3.15;;;;;;;;;;5008386;28;20286;-62
2021/05/09 05:25:06;;;;;;;3.60;3.30;;;;;;;;;;5007164;28;20240;-61
2021/05/09 05:27:32;;;;;;;3.80;3.50;;;;;;;;;;5010654;28;20687;-63
2021/05/09 05:29:58;;;;;;;3.03;2.83;;;;;;;;;;5002644;28;20247;-63
2021/05/09 05:32:24;;;;;;;4.80;3.20;;;;;;;;;;5004696;28;20224;-62
2021/05/09 05:34:50;;;;;;;3.70;3.13;;;;;;;;;;5002972;28;20188;-62
2021/05/09 05:37:16;;;;;;;3.10;2.90;;;;;;;;;;5006530;28;20192;-62
2021/05/09 05:39:42;;;;;;;3.10;2.90;;;;;;;;;;4999492;28;20195;-62
2021/05/09 05:42:08;;;;;;;3.13;2.92;;;;;;;;;;5003792;28;20219;-63
2021/05/09 05:44:34;;;;;;;3.85;3.33;;;;;;;;;;5003825;28;20584;-62
2021/05/09 05:47:00;;;;;;;3.38;3.03;;;;;;;;;;5009993;28;20195;-63
2021/05/09 05:49:26;;;;;;;3.30;3.00;;;;;;;;;;5001315;28;20181;-65
2021/05/09 05:51:52;;;;;;;4.18;2.92;;;;;;;;;;5004952;28;20209;-62
2021/05/09 05:54:18;;;;;;;3.90;2.90;;;;;;;;;;5003414;28;20185;-62
2021/05/09 05:56:44;;;;;;;3.00;2.80;;;;;;;;;;5005961;28;20271;-62
2021/05/09 05:59:10;;;;;;;5.32;2.80;;;;;;;;;;5003330;28;20201;-62
2021/05/09 06:01:36;;;;;;;3.10;2.90;;;;;;;;;;5004335;28;20208;-62
2021/05/09 06:04:02;;;;;;;5.13;2.92;;;;;;;;;;5007964;28;21077;-63
2021/05/09 06:06:29;;;;;;;2.90;2.70;;;;;;;;;;5007075;28;20219;-62
2021/05/09 06:08:56;;;;;;;3.47;3.13;;;;;;;;;;4999592;28;20706;-63
2021/05/09 06:11:22;;;;;;;5.72;2.22;;;;;;;;;;5002594;28;20212;-64
2021/05/09 06:13:48;;;;;;;3.38;2.70;;;;;;;;;;5004524;28;20196;-63
2021/05/09 06:16:14;;;;;;;4.53;2.88;;;;;;;;;;4996729;28;20208;-62
2021/05/09 06:18:40;;;;;;;2.90;2.60;;;;;;;;;;5000606;28;20963;-62
2021/05/09 06:21:06;;;;;;;4.85;2.83;;;;;;;;;;4993091;28;20204;-63
2021/05/09 06:23:32;;;;;;;3.13;2.83;;;;;;;;;;5000136;28;20572;-64
2021/05/09 06:25:58;;;;;;;8.95;2.80;;;;;;;;;;4999191;28;20205;-64
2021/05/09 06:28:24;;;;;;;3.25;2.50;;;;;;;;;;5004846;28;20191;-63
2021/05/09 06:30:50;;;;;;;4.25;3.08;;;;;;;;;;5006887;28;20204;-64
2021/05/09 06:33:16;;;;;;;3.10;2.80;;;;;;;;;;5000982;28;20192;-64
2021/05/09 06:35:43;;;;;;;2.88;2.58;;;;;;;;;;5004433;28;20237;-64
2021/05/09 06:38:09;;;;;;;4.38;2.88;;;;;;;;;;5001334;28;20191;-63
2021/05/09 06:40:36;;;;;;;3.00;2.60;;;;;;;;;;5003137;28;20299;-64
2021/05/09 06:43:03;;;;;;;3.38;2.38;;;;;;;;;;4999564;28;20273;-63
2021/05/09 06:45:30;;;;;;;2.85;2.53;;;;;;;;;;5003896;28;20231;-63
2021/05/09 06:47:57;;;;;;;3.70;2.85;;;;;;;;;;4996747;28;20208;-62
2021/05/09 06:50:23;;;;;;;3.22;2.60;;;;;;;;;;4999215;28;20192;-65
2021/05/09 06:52:49;;;;;;;4.07;2.78;;;;;;;;;;5001636;28;20222;-63
2021/05/09 06:55:15;;;;;;;3.95;2.80;;;;;;;;;;5006321;28;20267;-62
2021/05/09 06:57:41;;;;;;;8.88;3.25;;;;;;;;;;5010705;28;20213;-64
2021/05/09 07:00:08;;;;;;;3.65;2.92;;;;;;;;;;5003957;28;20194;-62
2021/05/09 07:02:34;;;;;;;3.17;2.80;;;;;;;;;;5002693;28;20580;-63
2021/05/09 07:05:01;;;;;;;3.05;2.38;;;;;;;;;;5002401;28;20205;-64
2021/05/09 07:07:27;;;;;;;5.25;2.80;;;;;;;;;;5002384;28;20673;-63
2021/05/09 07:09:53;;;;;;;4.40;2.70;;;;;;;;;;5005772;28;20566;-64
2021/05/09 07:12:19;;;;;;;4.15;2.78;;;;;;;;;;5013871;28;20208;-64
2021/05/09 07:14:45;;;;;;;3.53;2.60;;;;;;;;;;5001820;28;20182;-63
2021/05/09 07:17:12;;;;;;;4.20;2.47;;;;;;;;;;4998985;28;20196;-63
2021/05/09 07:19:38;;;;;;;1.88;1.65;;;;;;;;;;5002466;28;20192;-63
2021/05/09 07:22:09;;;;;;;2.33;1.65;;;;;;;;;;4998251;28;20209;-63
2021/05/09 07:24:35;;;;;;;2.07;1.80;;;;;;;;;;5001571;28;20192;-64
2021/05/09 07:27:01;;;;;;;2.72;1.50;;;;;;;;;;4997437;28;20200;-64
2021/05/09 07:29:27;;;;;;;1.20;1.10;;;;;;;;;;5001657;28;20185;-64
2021/05/09 07:31:53;;;;;;;2.58;1.27;;;;;;;;;;5000372;28;20228;-64
2021/05/09 07:34:20;;;;;;;1.13;1.00;;;;;;;;;;4997896;28;20862;-63
2021/05/09 07:36:47;;;;;;;3.75;0.93;;;;;;;;;;4999690;28;20616;-63
2021/05/09 07:39:13;;;;;;;2.28;1.10;;;;;;;;;;5003628;28;20189;-63
2021/05/09 07:41:39;;;;;;;2.70;1.30;;;;;;;;;;5003576;28;20215;-64
2021/05/09 07:44:06;;;;;;;1.67;1.10;;;;;;;;;;4997360;28;20187;-63
2021/05/09 07:46:32;;;;;;;5.05;1.10;;;;;;;;;;5001037;28;20231;-63
2021/05/09 07:48:58;;;;;;;2.42;1.02;;;;;;;;;;5004476;28;20178;-64
2021/05/09 07:51:24;;;;;;;0.80;0.80;;;;;;;;;;5004209;28;20243;-64
2021/05/09 07:53:50;;;;;;;2.45;1.25;;;;;;;;;;5007270;28;20265;-64
2021/05/09 07:56:18;;;;;;;1.35;1.25;;;;;;;;;;4995070;28;20277;-64
2021/05/09 07:58:44;;;;;;;1.35;1.02;;;;;;;;;;5002062;28;20248;-63
2021/05/09 08:01:10;;;;;;;1.10;0.88;;;;;;;;;;5001296;28;20209;-63
2021/05/09 08:03:36;;;;;;;1.13;1.02;;;;;;;;;;4998431;28;20213;-63
2021/05/09 08:06:02;;;;;;;2.60;0.90;;;;;;;;;;5004287;28;20728;-65
2021/05/09 08:08:30;;;;;;;1.10;0.90;;;;;;;;;;5005679;28;20276;-63
2021/05/09 08:10:56;;;;;;;1.02;0.75;;;;;;;;;;5000499;28;20205;-63
2021/05/09 08:13:22;;;;;;;2.00;0.90;;;;;;;;;;5003877;28;20189;-65
2021/05/09 08:15:48;;;;;;;1.73;1.00;;;;;;;;;;5004729;28;20540;-63
2021/05/09 08:18:14;;;;;;;1.13;1.00;;;;;;;;;;5004744;28;20186;-63
2021/05/09 08:20:40;;;;;;;1.10;0.73;;;;;;;;;;5006034;28;20763;-64
2021/05/09 08:23:06;;;;;;;1.40;1.00;;;;;;;;;;5002609;28;20243;-64
2021/05/09 08:25:34;;;;;;;3.50;1.25;;;;;;;;;;5004187;28;20292;-64
2021/05/09 08:28:00;;;;;;;1.60;0.90;;;;;;;;;;5002222;28;20292;-64
2021/05/09 08:30:27;;;;;;;1.05;0.77;;;;;;;;;;5002156;28;20285;-64
2021/05/09 08:32:53;;;;;;;3.10;0.93;;;;;;;;;;5007419;28;20578;-64
2021/05/09 08:35:19;;;;;;;4.35;0.80;;;;;;;;;;5001192;28;20184;-64
2021/05/09 08:37:45;;;;;;;1.02;0.80;;;;;;;;;;5003567;28;20194;-64
2021/05/09 08:40:15;;;;;;;2.63;0.85;;;;;;;;;;4997840;28;20199;-63
2021/05/09 08:42:42;;;;;;;1.42;0.88;;;;;;;;;;5004765;28;20251;-63
2021/05/09 08:45:08;;;;;;;2.55;0.70;;;;;;;;;;5003786;28;20217;-63
2021/05/09 08:47:42;;;;;;;2.15;0.80;;;;;;;;;;5003361;28;20267;-63
2021/05/09 08:50:08;;;;;;;1.23;0.68;;;;;;;;;;5004242;28;20739;-65
2021/05/09 08:52:34;;;;;;;1.90;0.90;;;;;;;;;;5012265;28;20201;-64
2021/05/09 08:55:01;;;;;;;1.60;0.90;;;;;;;;;;5000160;28;20220;-64
2021/05/09 08:57:28;;;;;;;1.10;0.80;;;;;;;;;;4999378;28;20303;-62
2021/05/09 08:59:54;;;;;;;1.48;0.80;;;;;;;;;;5002654;28;20250;-64
2021/05/09 09:02:22;;;;;;;2.92;0.98;;;;;;;;;;4998420;28;20209;-63
2021/05/09 09:04:52;;;;;;;5.10;1.20;;;;;;;;;;5004636;28;20284;-64
2021/05/09 09:07:19;;;;;;;2.10;0.80;;;;;;;;;;5000015;28;20188;-63
2021/05/09 09:09:47;;;;;;;1.38;1.00;;;;;;;;;;4999839;28;20188;-63
2021/05/09 09:12:14;;;;;;;3.53;1.02;;;;;;;;;;5005931;28;20205;-63
2021/05/09 09:15:06;;;;;;;1.00;0.90;;;;;;;;;;4999528;28;20207;-63
2021/05/09 09:17:32;;;;;;;4.82;1.15;;;;;;;;;;4992618;28;21697;-64
2021/05/09 09:19:58;;;;;;;2.88;0.75;;;;;;;;;;5001403;28;20259;-63
2021/05/09 09:22:24;;;;;;;0.73;0.57;;;;;;;;;;5001469;28;20287;-62
2021/05/09 09:25:07;;;;;;;1.17;0.70;;;;;;;;;;4997298;28;20236;-63
2021/05/09 09:27:33;;;;;;;1.75;0.70;;;;;;;;;;5001746;28;20559;-63
2021/05/09 09:30:02;;;;;;;1.25;0.75;;;;;;;;;;4999001;28;20205;-63
2021/05/09 09:32:28;;;;;;;4.32;0.80;;;;;;;;;;5006204;28;20592;-63
2021/05/09 09:34:54;;;;;;;3.38;0.80;;;;;;;;;;5007958;28;20188;-63
2021/05/09 09:37:21;;;;;;;1.08;0.98;;;;;;;;;;5001979;28;20219;-63
2021/05/09 09:39:48;;;;;;;2.80;0.80;;;;;;;;;;5001672;28;20547;-63
2021/05/09 09:42:14;;;;;;;1.85;0.70;;;;;;;;;;5000593;28;20607;-62
2021/05/09 09:44:40;;;;;;;1.42;0.60;;;;;;;;;;5006675;28;20193;-64
2021/05/09 09:47:06;;;;;;;2.83;1.52;;;;;;;;;;4997906;28;20208;-64
2021/05/09 09:49:35;;;;;;;2.47;1.80;;;;;;;;;;5007282;28;20181;-63
2021/05/09 09:52:06;;;;;;;2.42;1.23;;;;;;;;;;5000482;28;20204;-62
2021/05/09 09:54:38;;;;;;;2.50;0.80;;;;;;;;;;4999824;28;20191;-62
2021/05/09 09:57:22;;;;;;;2.40;0.90;;;;;;;;;;4997215;28;20196;-62
2021/05/09 10:00:09;;;;;;;1.45;0.70;;;;;;;;;;5000195;28;20188;-63
2021/05/09 10:02:35;;;;;;;2.13;0.70;;;;;;;;;;5003244;28;20211;-63
2021/05/09 10:05:01;;;;;;;1.95;0.50;;;;;;;;;;5011112;28;20292;-62
2021/05/09 10:07:28;;;;;;;2.15;0.55;;;;;;;;;;5003427;28;20266;-63
2021/05/09 10:09:57;;;;;;;2.00;0.57;;;;;;;;;;5000732;28;20276;-63
2021/05/09 10:12:26;;;;;;;0.90;0.60;;;;;;;;;;5008520;28;20295;-64
2021/05/09 10:14:55;;;;;;;2.47;0.90;;;;;;;;;;5001937;28;20574;-63
2021/05/09 10:17:21;;;;;;;1.27;0.70;;;;;;;;;;4998902;28;20242;-63
2021/05/09 10:19:48;;;;;;;1.27;0.65;;;;;;;;;;4999859;28;20271;-62
2021/05/09 10:22:26;;;;;;;0.98;0.70;;;;;;;;;;5010237;28;20620;-63
2021/05/09 10:24:52;;;;;;;1.42;0.63;;;;;;;;;;5006706;28;20192;-62
2021/05/09 10:27:18;;;;;;;2.55;0.50;;;;;;;;;;5002362;28;20747;-62
2021/05/09 10:29:45;;;;;;;2.90;0.60;;;;;;;;;;5003635;28;20188;-62
2021/05/09 10:32:20;;;;;;;1.35;0.50;;;;;;;;;;5003153;28;20197;-62
2021/05/09 10:34:56;;;;;;;1.23;0.32;;;;;;;;;;5003703;28;20188;-62
2021/05/09 10:37:45;;;;;;;0.47;0.32;;;;;;;;;;5001216;28;20177;-62
2021/05/09 10:40:20;;;;;;;2.10;0.50;;;;;;;;;;5009002;28;20749;-62
2021/05/09 10:42:47;;;;;;;1.20;0.40;;;;;;;;;;5000184;28;20207;-62
2021/05/09 10:45:40;;;;;;;1.05;0.70;;;;;;;;;;5019281;28;20200;-62
2021/05/09 10:48:15;;;;;;;0.75;0.55;;;;;;;;;;5001485;28;20250;-62
2021/05/09 10:50:42;;;;;;;0.93;0.40;;;;;;;;;;4998645;28;20184;-60
2021/05/09 10:53:08;;;;;;;2.33;0.60;;;;;;;;;;5004523;28;20186;-64
2021/05/09 10:55:45;;;;;;;3.67;0.60;;;;;;;;;;5016056;28;20566;-62
2021/05/09 10:58:17;;;;;;;1.58;0.40;;;;;;;;;;5025874;28;20187;-63
2021/05/09 11:00:58;;;;;;;1.63;0.60;;;;;;;;;;5004304;28;20175;-63
2021/05/09 11:03:37;;;;;;;2.47;0.50;;;;;;;;;;5007582;28;20184;-62
2021/05/09 11:06:03;;;;;;;1.77;0.40;;;;;;;;;;5004847;28;20725;-62
2021/05/09 11:08:44;;;;;;;1.50;0.70;;;;;;;;;;5001320;28;20213;-62
2021/05/09 11:11:14;;;;;;;1.50;0.50;;;;;;;;;;5002179;28;20223;-62
2021/05/09 11:14:10;;;;;;;0.93;0.40;;;;;;;;;;5006200;28;20626;-62
2021/05/09 11:16:39;;;;;;;1.23;0.50;;;;;;;;;;5009131;28;20185;-63
2021/05/09 11:19:06;;;;;;;1.85;0.52;;;;;;;;;;4999391;28;20593;-63
2021/05/09 11:21:44;;;;;;;0.82;0.40;;;;;;;;;;5011134;28;20270;-64
2021/05/09 11:24:11;;;;;;;2.97;0.70;;;;;;;;;;4999320;28;20267;-62
2021/05/09 11:26:44;;;;;;;1.25;0.50;;;;;;;;;;5002254;28;20205;-62
2021/05/09 11:29:10;;;;;;;2.47;0.40;;;;;;;;;;5000057;28;20188;-63
2021/05/09 11:31:47;;;;;;;1.73;0.50;;;;;;;;;;5000218;28;20197;-62
2021/05/09 11:34:13;;;;;;;1.35;0.40;;;;;;;;;;4999604;28;20564;-62
2021/05/09 11:36:40;;;;;;;0.88;0.40;;;;;;;;;;5000138;28;20180;-62
2021/05/09 11:39:07;;;;;;;0.73;0.40;;;;;;;;;;5002046;28;20230;-62
2021/05/09 11:41:48;;;;;;;0.80;0.30;;;;;;;;;;5001142;28;20212;-62
2021/05/09 11:44:14;;;;;;;2.83;0.38;;;;;;;;;;4998505;28;20190;-62
2021/05/09 11:46:40;;;;;;;0.93;0.60;;;;;;;;;;4996907;28;20200;-62
2021/05/09 11:49:15;;;;;;;1.38;0.80;;;;;;;;;;4997851;28;20212;-62
2021/05/09 11:51:58;;;;;;;2.10;0.40;;;;;;;;;;5001066;28;20215;-63
2021/05/09 11:54:25;;;;;;;4.38;0.57;;;;;;;;;;5002875;28;20621;-62
2021/05/09 11:56:56;;;;;;;1.00;0.38;;;;;;;;;;5006202;28;20187;-62
2021/05/09 11:59:34;;;;;;;0.35;0.30;;;;;;;;;;5003618;28;20188;-62
2021/05/09 12:02:00;;;;;;;1.30;0.50;;;;;;;;;;4997979;28;20287;-62
2021/05/09 12:04:30;;;;;;;1.55;0.40;;;;;;;;;;5001662;28;20180;-63
2021/05/09 12:07:00;;;;;;;1.48;0.60;;;;;;;;;;5001227;28;20324;-62
2021/05/09 12:09:27;;;;;;;1.88;0.60;;;;;;;;;;5004426;28;20193;-63
2021/05/09 12:11:53;;;;;;;1.17;0.30;;;;;;;;;;5005637;28;20200;-62
2021/05/09 12:14:19;;;;;;;0.63;0.30;;;;;;;;;;4997079;28;20669;-62
2021/05/09 12:16:46;;;;;;;1.17;0.45;;;;;;;;;;5002530;28;20211;-62
2021/05/09 12:19:12;;;;;;;2.90;0.50;;;;;;;;;;5004610;28;20188;-62
2021/05/09 12:21:38;;;;;;;3.33;0.45;;;;;;;;;;5003221;28;20218;-62
2021/05/09 12:24:05;;;;;;;2.83;0.60;;;;;;;;;;5009235;28;20737;-63
2021/05/09 12:26:32;;;;;;;3.38;0.60;;;;;;;;;;5004757;28;20215;-63
2021/05/09 12:29:16;;;;;;;2.33;0.50;;;;;;;;;;5000149;28;20217;-62
2021/05/09 12:31:43;;;;;;;1.95;0.50;;;;;;;;;;5004706;28;20231;-62
2021/05/09 12:34:10;;;;;;;1.88;0.50;;;;;;;;;;5004639;28;20193;-63
2021/05/09 12:36:38;;;;;;;0.93;0.60;;;;;;;;;;5005130;28;20185;-62
2021/05/09 12:39:18;;;;;;;1.02;0.45;;;;;;;;;;5005379;28;20227;-62
2021/05/09 12:41:53;;;;;;;2.17;0.50;;;;;;;;;;5000527;28;20200;-63
2021/05/09 12:44:23;;;;;;;1.20;0.70;;;;;;;;;;5002172;28;20184;-63
2021/05/09 12:46:49;;;;;;;2.65;0.75;;;;;;;;;;4998660;28;20810;-62
2021/05/09 12:49:17;;;;;;;2.03;0.40;;;;;;;;;;5001418;28;20555;-62
2021/05/09 12:51:52;;;;;;;2.53;0.45;;;;;;;;;;5002223;28;20217;-62
2021/05/09 12:54:33;;;;;;;1.95;0.30;;;;;;;;;;5004515;28;20444;-62
2021/05/09 12:57:18;;;;;;;0.88;0.30;;;;;;;;;;5002410;28;20196;-62
2021/05/09 12:59:58;;;;;;;2.63;0.50;;;;;;;;;;5007082;28;20190;-62
2021/05/09 13:02:26;;;;;;;2.05;0.50;;;;;;;;;;5002043;28;20201;-63
2021/05/09 13:04:55;;;;;;;1.33;0.50;;;;;;;;;;5000361;28;20199;-63
2021/05/09 13:07:22;;;;;;;0.57;0.40;;;;;;;;;;5008464;28;20176;-63
2021/05/09 13:09:49;;;;;;;1.67;0.40;;;;;;;;;;5006056;28;20263;-63
2021/05/09 13:12:16;;;;;;;2.45;0.50;;;;;;;;;;5001632;28;20254;-63
2021/05/09 13:14:44;;;;;;;1.27;0.55;;;;;;;;;;5008503;28;20186;-63
2021/05/09 13:17:10;;;;;;;0.73;0.47;;;;;;;;;;5006258;28;20177;-63
2021/05/09 13:19:38;;;;;;;1.17;0.50;;;;;;;;;;5004628;28;20203;-63
2021/05/09 13:22:04;;;;;;;1.30;0.40;;;;;;;;;;5004506;28;20221;-63
2021/05/09 13:24:30;;;;;;;2.65;0.43;;;;;;;;;;5002508;28;20185;-63
2021/05/09 13:26:56;;;;;;;0.73;0.45;;;;;;;;;;5004636;28;20209;-63
2021/05/09 13:29:23;;;;;;;0.90;0.60;;;;;;;;;;5008577;28;20192;-63
2021/05/09 13:31:49;;;;;;;0.60;0.40;;;;;;;;;;5010127;28;20262;-63
2021/05/09 13:34:15;;;;;;;2.28;0.60;;;;;;;;;;5003253;28;20180;-63
2021/05/09 13:36:41;;;;;;;0.38;0.38;;;;;;;;;;5002905;28;20313;-63
2021/05/09 13:39:07;;;;;;;0.98;0.60;;;;;;;;;;5001923;28;20263;-62
2021/05/09 13:41:34;;;;;;;1.58;0.60;;;;;;;;;;5004645;28;20347;-63
2021/05/09 13:44:00;;;;;;;3.15;0.60;;;;;;;;;;5005334;28;20280;-64
2021/05/09 13:46:26;;;;;;;1.85;0.60;;;;;;;;;;4996600;28;20336;-66
2021/05/09 13:48:53;;;;;;;2.45;0.50;;;;;;;;;;4998397;28;20188;-63
2021/05/09 13:51:19;;;;;;;1.70;0.40;;;;;;;;;;5004929;28;20212;-63
2021/05/09 13:53:45;;;;;;;0.95;0.57;;;;;;;;;;5011050;28;20197;-64
2021/05/09 13:56:11;;;;;;;1.40;0.50;;;;;;;;;;4999275;28;20538;-63
2021/05/09 13:58:37;;;;;;;3.33;0.40;;;;;;;;;;5004738;28;20180;-63
2021/05/09 14:01:03;;;;;;;0.63;0.40;;;;;;;;;;5006410;28;20591;-64
2021/05/09 14:03:29;;;;;;;0.88;0.47;;;;;;;;;;5007793;28;22167;-63
2021/05/09 14:05:55;;;;;;;1.00;0.38;;;;;;;;;;4998311;28;20213;-63
2021/05/09 14:08:21;;;;;;;3.28;0.75;;;;;;;;;;5006249;28;20204;-63
2021/05/09 14:10:47;;;;;;;1.17;0.50;;;;;;;;;;5001744;28;20601;-64
2021/05/09 14:13:17;;;;;;;0.57;0.43;;;;;;;;;;5005300;28;20184;-63
2021/05/09 14:15:44;;;;;;;0.80;0.40;;;;;;;;;;5005040;28;20202;-63
2021/05/09 14:18:10;;;;;;;1.55;0.47;;;;;;;;;;4998192;28;20239;-63
2021/05/09 14:20:36;;;;;;;3.53;0.73;;;;;;;;;;5001781;28;20268;-63
2021/05/09 14:23:02;;;;;;;0.90;0.60;;;;;;;;;;5002491;28;20185;-63
2021/05/09 14:25:28;;;;;;;2.58;0.65;;;;;;;;;;5012320;28;20212;-63
2021/05/09 14:27:54;;;;;;;4.28;0.60;;;;;;;;;;5003704;28;20530;-63
2021/05/09 14:30:21;;;;;;;1.15;0.50;;;;;;;;;;5004592;28;20660;-63
2021/05/09 14:32:48;;;;;;;2.17;0.40;;;;;;;;;;5000512;28;20643;-62
2021/05/09 14:35:14;;;;;;;0.65;0.45;;;;;;;;;;5003688;28;20191;-64
2021/05/09 14:37:40;;;;;;;0.60;0.30;;;;;;;;;;5000670;28;20561;-64
2021/05/09 14:40:07;;;;;;;2.38;0.45;;;;;;;;;;5004146;28;20226;-64
2021/05/09 14:42:33;;;;;;;0.95;0.40;;;;;;;;;;5003477;28;20681;-64
2021/05/09 14:44:59;;;;;;;0.85;0.40;;;;;;;;;;5004334;28;20552;-63